Time;durP1;ratioP1;P1;durP2;ratioP2;P2;SDS_P1;SDS_P2;PMS_P1;PMS_P2;Temp;Humidity;BMP_temperature;BMP_pressure;BME280_temperature;BME280_humidity;BME280_pressure;Samples;Min_cycle;Max_cycle;Signal;HPM_P1;HPM_P2
2022/07/29 00:01:15;;;;;;;;;6.50;5.00;;;;;23.26;31.77;100930.66;5068087;27;64539;-47
2022/07/29 00:03:40;;;;;;;;;6.25;5.00;;;;;23.25;31.65;100930.81;5076241;28;45365;-45
2022/07/29 00:06:05;;;;;;;;;4.50;4.50;;;;;23.24;32.22;100932.63;5068264;28;46297;-49
2022/07/29 00:08:31;;;;;;;;;6.00;4.75;;;;;23.23;31.67;100924.72;5083449;27;49405;-48
2022/07/29 00:10:56;;;;;;;;;7.50;5.00;;;;;23.23;32.18;100924.72;5061412;28;45502;-46
2022/07/29 00:13:22;;;;;;;;;6.00;5.00;;;;;23.20;32.04;100920.47;5071589;27;45372;-46
2022/07/29 00:15:47;;;;;;;;;4.00;4.00;;;;;23.17;31.95;100912.69;5080811;27;45913;-43
2022/07/29 00:18:12;;;;;;;;;6.25;4.00;;;;;23.15;31.74;100911.97;5074867;27;46537;-45
2022/07/29 00:20:38;;;;;;;;;4.25;4.00;;;;;23.13;32.09;100911.25;5072019;27;45485;-44
2022/07/29 00:23:03;;;;;;;;;5.00;4.00;;;;;23.11;32.68;100905.19;5056371;28;45367;-45
2022/07/29 00:25:29;;;;;;;;;5.50;4.25;;;;;23.06;32.26;100905.53;5074723;27;45619;-45
2022/07/29 00:27:54;;;;;;;;;4.00;4.00;;;;;23.03;32.20;100895.03;5072125;28;49757;-47
2022/07/29 00:30:20;;;;;;;;;4.25;4.00;;;;;23.02;32.65;100905.84;5063029;28;45303;-44
2022/07/29 00:32:45;;;;;;;;;6.00;6.00;;;;;23.00;32.77;100903.31;5078896;27;45304;-46
2022/07/29 00:37:54;;;;;;;;;3.00;3.00;;;;;22.95;32.39;100897.47;5064417;27;45251;-45
2022/07/29 00:40:20;;;;;;;;;5.00;5.00;;;;;22.91;32.39;100891.53;5072821;27;70335;-46
2022/07/29 00:42:50;;;;;;;;;4.00;3.25;;;;;22.91;32.92;100885.31;5080675;27;45275;-45
2022/07/29 00:45:16;;;;;;;;;6.00;4.00;;;;;22.91;32.40;100895.97;5071133;27;46424;-45
2022/07/29 00:47:41;;;;;;;;;3.75;3.75;;;;;22.91;32.79;100887.97;5074154;27;46086;-46
2022/07/29 00:50:09;;;;;;;;;5.00;4.25;;;;;22.90;32.41;100894.31;5067692;27;45395;-46
2022/07/29 00:52:39;;;;;;;;;4.75;4.75;;;;;22.90;32.88;100896.97;5070599;27;45434;-45
2022/07/29 00:55:06;;;;;;;;;4.75;4.75;;;;;22.87;32.89;100890.03;5069677;27;45684;-47
2022/07/29 00:57:32;;;;;;;;;6.00;5.00;;;;;22.82;33.32;100888.69;5075876;27;45387;-47
2022/07/29 00:59:58;;;;;;;;;8.75;4.00;;;;;22.79;33.32;100889.78;5073319;28;45425;-47
2022/07/29 01:02:23;;;;;;;;;7.25;5.00;;;;;22.74;32.88;100898.13;5077394;27;45313;-45
2022/07/29 01:04:49;;;;;;;;;6.00;5.75;;;;;22.67;32.95;100888.88;5073389;28;46377;-46
2022/07/29 01:07:15;;;;;;;;;10.00;7.00;;;;;22.66;33.11;100894.34;5073418;27;45237;-45
2022/07/29 01:09:42;;;;;;;;;8.50;6.75;;;;;22.64;33.47;100889.09;5068355;28;45491;-44
2022/07/29 01:12:07;;;;;;;;;8.25;6.00;;;;;22.63;33.20;100891.88;5067318;28;45290;-47
2022/07/29 01:14:34;;;;;;;;;6.00;6.00;;;;;22.61;33.63;100892.03;5071935;28;46203;-46
2022/07/29 01:17:05;;;;;;;;;5.00;5.00;;;;;22.60;33.65;100892.16;5089271;27;45705;-47
2022/07/29 01:19:55;;;;;;;;;6.50;5.00;;;;;22.57;33.58;100887.88;5075782;27;45318;-51
2022/07/29 01:23:08;;;;;;;;;6.00;4.00;;;;;22.53;33.47;100894.41;5072809;28;45440;-49
2022/07/29 01:25:47;;;;;;;;;5.00;5.00;;;;;22.49;33.26;100891.13;5063180;28;47124;-46
2022/07/29 01:28:55;;;;;;;;;7.00;4.00;;;;;22.48;33.29;100894.75;5073501;27;46433;-48
2022/07/29 01:31:27;;;;;;;;;9.50;6.50;;;;;22.45;33.36;100899.47;5028376;28;45274;-45
2022/07/29 01:33:59;;;;;;;;;6.50;4.50;;;;;22.43;33.74;100896.91;5069864;27;45366;-48
2022/07/29 01:36:31;;;;;;;;;4.50;4.50;;;;;22.43;33.66;100896.91;5077055;28;46042;-49
2022/07/29 01:39:17;;;;;;;;;8.00;4.00;;;;;22.45;33.45;100899.47;5073932;27;45519;-47
2022/07/29 01:42:15;;;;;;;;;5.75;4.00;;;;;22.43;33.39;100894.22;5075971;27;45320;-47
2022/07/29 01:44:54;;;;;;;;;6.25;4.25;;;;;22.36;33.79;100887.66;5061754;28;45431;-44
2022/07/29 01:47:25;;;;;;;;;5.25;5.00;;;;;22.34;33.47;100889.59;5072845;27;46145;-46
2022/07/29 01:49:55;;;;;;;;;5.00;5.00;;;;;22.34;34.03;100893.09;5067913;28;45870;-46
2022/07/29 01:52:27;;;;;;;;;5.25;5.00;;;;;22.35;33.47;100894.81;5078172;27;45326;-47
2022/07/29 01:54:55;;;;;;;;;5.00;4.50;;;;;22.36;34.06;100896.53;5056116;28;45547;-45
2022/07/29 01:57:26;;;;;;;;;6.50;4.75;;;;;22.39;33.99;100907.94;5055760;28;46993;-46
2022/07/29 01:59:52;;;;;;;;;5.00;5.00;;;;;22.41;33.86;100906.00;5078211;28;45319;-45
2022/07/29 02:02:18;;;;;;;;;7.00;6.00;;;;;22.42;33.74;100903.22;5073105;28;58939;-45
2022/07/29 02:04:48;;;;;;;;;6.00;6.00;;;;;22.44;34.03;100905.78;5050150;28;70586;-46
2022/07/29 02:07:17;;;;;;;;;6.25;5.25;;;;;22.42;33.44;100900.56;5085331;27;46351;-45
2022/07/29 02:09:43;;;;;;;;;7.75;5.25;;;;;22.44;33.35;100906.63;5070204;28;45446;-44
2022/07/29 02:12:10;;;;;;;;;6.00;6.00;;;;;22.42;33.89;100900.56;5069486;27;69393;-44
2022/07/29 02:14:44;;;;;;;;;3.75;3.75;;;;;22.41;33.84;100904.16;5064355;28;70960;-44
2022/07/29 02:17:12;;;;;;;;;6.50;3.75;;;;;22.42;34.05;100902.38;5068437;28;45364;-44
2022/07/29 02:19:38;;;;;;;;;9.00;4.50;;;;;22.42;33.59;100902.38;5072183;28;45234;-44
2022/07/29 02:22:05;;;;;;;;;7.25;6.50;;;;;22.42;34.29;100905.03;5070301;27;64970;-44
2022/07/29 02:24:31;;;;;;;;;8.00;7.00;;;;;22.41;33.70;100909.50;5074391;28;69216;-44
2022/07/29 02:26:57;;;;;;;;;4.25;3.00;;;;;22.41;34.05;100914.84;5085836;27;46080;-44
2022/07/29 02:29:25;;;;;;;;;10.00;5.00;;;;;22.35;33.59;100900.16;5071047;28;71404;-44
2022/07/29 02:31:51;;;;;;;;;4.75;4.75;;;;;22.37;33.80;100900.03;5071104;27;45461;-44
2022/07/29 02:34:18;;;;;;;;;6.75;4.00;;;;;22.34;33.88;100909.09;5056221;28;45652;-52
2022/07/29 02:36:44;;;;;;;;;6.25;5.25;;;;;22.32;34.01;100908.38;5070968;27;46260;-45
2022/07/29 02:39:11;;;;;;;;;5.25;5.25;;;;;22.31;34.05;100908.47;5052237;28;53138;-47
2022/07/29 02:41:45;;;;;;;;;7.00;5.00;;;;;22.29;33.92;100905.06;5069004;28;45551;-44
2022/07/29 02:44:14;;;;;;;;;6.00;5.25;;;;;22.29;33.81;100913.06;5068786;27;45485;-48
2022/07/29 02:46:57;;;;;;;;;4.75;4.75;;;;;22.30;34.34;100912.13;5068701;27;45370;-45
2022/07/29 02:49:34;;;;;;;;;6.75;4.75;;;;;22.30;34.41;100912.97;5071076;28;45686;-45
2022/07/29 02:52:16;;;;;;;;;6.00;5.50;;;;;22.28;34.42;100912.22;5069320;28;45339;-48
2022/07/29 02:54:46;;;;;;;;;5.00;4.75;;;;;22.26;34.08;100908.81;5064993;28;45418;-47
2022/07/29 02:57:21;;;;;;;;;6.25;5.00;;;;;22.26;34.15;100907.97;5074711;27;45328;-49
2022/07/29 02:59:49;;;;;;;;;9.00;6.00;;;;;22.26;34.39;100908.81;5072242;27;45438;-47
2022/07/29 03:02:16;;;;;;;;;5.00;5.00;;;;;22.24;34.23;100902.75;5070782;27;45458;-51
2022/07/29 03:04:42;;;;;;;;;8.00;6.75;;;;;22.24;34.18;100904.53;5076699;27;57060;-49
2022/07/29 03:07:09;;;;;;;;;9.00;4.50;;;;;22.23;34.70;100903.69;5071129;28;45360;-54
2022/07/29 03:09:36;;;;;;;;;8.00;6.75;;;;;22.22;34.71;100907.31;5065571;28;45751;-46
2022/07/29 03:12:03;;;;;;;;;6.75;5.75;;;;;22.23;34.26;100914.34;5068489;27;45221;-49
2022/07/29 03:14:30;;;;;;;;;8.00;6.75;;;;;22.22;34.68;100915.31;5066916;27;45585;-51
2022/07/29 03:16:56;;;;;;;;;7.50;6.00;;;;;22.21;34.76;100915.44;5073842;27;64239;-51
2022/07/29 03:19:21;;;;;;;;;9.00;6.00;;;;;22.22;34.41;100930.44;5061017;28;61273;-48
2022/07/29 03:21:46;;;;;;;;;7.25;7.00;;;;;22.19;34.91;100916.38;5074562;27;69303;-50
2022/07/29 03:24:24;;;;;;;;;6.00;5.75;;;;;22.18;34.75;100920.00;5077075;27;45508;-51
2022/07/29 03:26:50;;;;;;;;;8.00;5.75;;;;;22.18;34.80;100925.34;5078406;27;45688;-50
2022/07/29 03:29:15;;;;;;;;;7.00;6.50;;;;;22.20;34.44;100922.56;5071698;27;69806;-47
2022/07/29 03:31:40;;;;;;;;;6.25;5.00;;;;;22.21;34.57;100920.78;5069847;27;58911;-48
2022/07/29 03:34:06;;;;;;;;;9.00;8.00;;;;;22.21;34.93;100924.28;5075460;27;67462;-46
2022/07/29 03:36:33;;;;;;;;;7.50;7.50;;;;;22.21;34.61;100915.44;5073662;27;47953;-50
2022/07/29 03:39:00;;;;;;;;;9.00;7.00;;;;;22.18;35.24;100917.34;5074145;28;45257;-46
2022/07/29 03:41:25;;;;;;;;;7.25;7.25;;;;;22.17;35.33;100921.00;5070843;27;45374;-45
2022/07/29 03:43:51;;;;;;;;;7.75;7.00;;;;;22.17;34.95;100920.16;5074182;27;45345;-44
2022/07/29 03:46:17;;;;;;;;;12.25;7.00;;;;;22.15;35.24;100920.25;5064979;27;65107;-45
2022/07/29 03:48:46;;;;;;;;;7.75;7.00;;;;;22.16;34.94;100926.44;5066288;28;70085;-47
2022/07/29 03:51:12;;;;;;;;;10.00;7.00;;;;;22.18;35.07;100928.00;5080062;27;45267;-45
2022/07/29 03:53:37;;;;;;;;;10.00;7.25;;;;;22.19;35.53;100926.22;5077938;28;45464;-45
2022/07/29 03:56:03;;;;;;;;;10.25;8.00;;;;;22.18;35.03;100924.50;5094814;27;45896;-45
2022/07/29 03:58:30;;;;;;;;;13.25;9.25;;;;;22.18;36.04;100921.84;5076767;28;45421;-48
2022/07/29 04:00:55;;;;;;;;;10.50;8.50;;;;;22.15;36.14;100920.25;5079023;27;58622;-45
2022/07/29 04:03:22;;;;;;;;;7.50;7.50;;;;;22.16;36.30;100929.09;5069816;28;45816;-46
2022/07/29 04:06:05;;;;;;;;;11.50;9.00;;;;;22.15;35.84;100936.25;5078909;27;45486;-45
2022/07/29 04:08:31;;;;;;;;;11.75;9.00;;;;;22.15;36.47;100938.91;5074092;27;45813;-46
2022/07/29 04:10:57;;;;;;;;;9.75;8.25;;;;;22.17;36.18;100941.47;5076416;27;45347;-45
2022/07/29 04:13:22;;;;;;;;;9.50;7.50;;;;;22.15;36.38;100944.25;5068727;27;45315;-44
2022/07/29 04:15:47;;;;;;;;;8.75;6.50;;;;;22.14;36.38;100937.19;5066145;27;69430;-46
2022/07/29 04:18:13;;;;;;;;;6.75;6.00;;;;;22.15;36.07;100941.56;5069047;28;73245;-45
2022/07/29 04:20:38;;;;;;;;;13.25;7.75;;;;;22.15;36.60;100943.38;5067846;27;52229;-45
2022/07/29 04:23:04;;;;;;;;;10.50;8.75;;;;;22.14;36.40;100942.53;5059442;28;45282;-45
2022/07/29 04:25:29;;;;;;;;;12.00;10.50;;;;;22.14;36.99;100941.69;5070618;28;47027;-49
2022/07/29 04:28:00;;;;;;;;;9.00;7.50;;;;;22.11;36.80;100945.41;5068384;27;45417;-47
2022/07/29 04:30:26;;;;;;;;;6.25;5.75;;;;;22.08;36.13;100947.44;5074682;27;45299;-46
2022/07/29 04:32:51;;;;;;;;;8.50;7.75;;;;;22.07;36.44;100948.41;5075909;27;47099;-47
2022/07/29 04:35:17;;;;;;;;;10.00;8.00;;;;;22.05;36.33;100945.03;5079178;27;46878;-45
2022/07/29 04:37:43;;;;;;;;;10.25;8.00;;;;;22.04;36.68;100948.63;5088489;27;45847;-54
2022/07/29 04:40:09;;;;;;;;;8.00;7.75;;;;;22.04;36.49;100944.16;5075745;27;45448;-46
2022/07/29 04:42:34;;;;;;;;;9.25;7.25;;;;;22.05;36.63;100947.69;5054203;28;46251;-44
2022/07/29 04:44:59;;;;;;;;;9.75;9.00;;;;;22.03;36.70;100944.25;5069241;27;57559;-48
2022/07/29 04:47:25;;;;;;;;;9.75;7.25;;;;;22.02;36.10;100953.22;5070842;27;60586;-48
2022/07/29 04:49:50;;;;;;;;;8.50;8.50;;;;;22.00;36.69;100956.84;5058202;28;69097;-48
2022/07/29 04:52:15;;;;;;;;;9.50;9.25;;;;;22.01;36.69;100955.06;5069304;27;72710;-46
2022/07/29 04:54:41;;;;;;;;;8.00;6.50;;;;;22.01;36.77;100957.72;5077398;27;70978;-49
2022/07/29 04:57:06;;;;;;;;;9.25;7.00;;;;;22.01;36.33;100963.06;5072092;27;69388;-47
2022/07/29 04:59:31;;;;;;;;;11.00;8.25;;;;;21.99;36.31;100954.28;5070353;27;69725;-48
2022/07/29 05:01:57;;;;;;;;;10.50;8.00;;;;;21.97;36.75;100961.53;5072415;27;70392;-51
2022/07/29 05:04:22;;;;;;;;;9.25;7.00;;;;;21.96;36.75;100955.38;5069490;27;45871;-49
2022/07/29 05:06:48;;;;;;;;;7.25;7.25;;;;;21.97;36.40;100954.41;5076444;27;45416;-47
2022/07/29 05:09:13;;;;;;;;;8.50;6.50;;;;;21.99;36.78;100957.81;5072913;27;45420;-44
2022/07/29 05:11:38;;;;;;;;;10.75;8.00;;;;;22.01;36.52;100957.72;5067358;27;62794;-48
2022/07/29 05:14:04;;;;;;;;;10.25;8.25;;;;;22.01;37.41;100960.38;5077049;27;73308;-46
2022/07/29 05:16:29;;;;;;;;;8.75;8.00;;;;;21.99;37.00;100959.63;5073046;28;45288;-44
2022/07/29 05:18:54;;;;;;;;;11.25;10.75;;;;;22.02;36.84;100967.41;5067751;27;57557;-46
2022/07/29 05:21:20;;;;;;;;;11.00;9.25;;;;;22.04;37.25;100968.13;5079236;27;57222;-46
2022/07/29 05:23:45;;;;;;;;;12.50;10.75;;;;;22.05;36.74;100961.84;5069987;27;46056;-44
2022/07/29 05:26:11;;;;;;;;;13.25;9.00;;;;;22.10;36.90;100953.53;5070010;27;61911;-47
2022/07/29 05:28:37;;;;;;;;;11.00;9.25;;;;;22.13;37.11;100955.97;5067325;28;45381;-45
2022/07/29 05:31:02;;;;;;;;;15.25;10.50;;;;;22.12;36.79;100960.44;5072381;27;45562;-44
2022/07/29 05:33:28;;;;;;;;;14.50;10.25;;;;;22.14;37.52;100965.69;5075703;27;45511;-47
2022/07/29 05:35:53;;;;;;;;;13.50;10.25;;;;;22.17;36.32;100965.47;5066096;28;70634;-43
2022/07/29 05:38:18;;;;;;;;;11.00;7.75;;;;;22.16;38.37;100969.06;5068576;27;56377;-45
2022/07/29 05:40:44;;;;;;;;;5.75;5.75;;;;;22.19;39.50;100966.19;5075746;27;73015;-43
2022/07/29 05:43:09;;;;;;;;;9.25;6.25;;;;;22.22;37.91;100970.44;5062699;27;73419;-46
2022/07/29 05:45:34;;;;;;;;;9.50;9.00;;;;;22.26;38.13;100971.94;5071759;28;68046;-43
2022/07/29 05:48:00;;;;;;;;;13.50;9.00;;;;;22.29;37.82;100969.94;5075904;27;61496;-43
2022/07/29 05:50:25;;;;;;;;;8.50;7.75;;;;;22.36;37.48;100975.66;5069657;27;45533;-42
2022/07/29 05:52:50;;;;;;;;;10.75;8.75;;;;;22.40;37.31;100981.59;5075114;27;57502;-47
2022/07/29 05:55:16;;;;;;;;;11.25;10.75;;;;;22.41;36.57;100983.31;5086993;27;45396;-47
2022/07/29 05:57:43;;;;;;;;;10.75;8.25;;;;;22.37;37.21;100980.03;5066987;28;45800;-50
2022/07/29 06:00:09;;;;;;;;;12.75;12.00;;;;;22.36;37.58;100978.31;5054820;28;45680;-49
2022/07/29 06:02:34;;;;;;;;;11.00;9.50;;;;;22.36;37.48;100981.84;5071260;27;46385;-50
2022/07/29 06:05:00;;;;;;;;;12.00;10.00;;;;;22.35;37.48;100988.13;5070475;28;67501;-50
2022/07/29 06:07:25;;;;;;;;;10.25;10.25;;;;;22.39;37.06;100990.59;5063656;27;45660;-44
2022/07/29 06:09:50;;;;;;;;;12.00;8.50;;;;;22.39;38.08;100991.44;5079124;27;45307;-42
2022/07/29 06:12:16;;;;;;;;;14.00;11.00;;;;;22.40;37.41;100990.50;5062814;27;53248;-49
2022/07/29 06:14:41;;;;;;;;;16.25;12.25;;;;;22.44;37.59;100988.44;5067618;27;45378;-49
2022/07/29 06:17:06;;;;;;;;;9.75;8.50;;;;;22.46;37.67;100994.50;5074793;27;67855;-44
2022/07/29 06:19:34;;;;;;;;;11.25;10.00;;;;;22.48;37.63;101001.44;5073521;28;45313;-47
2022/07/29 06:21:59;;;;;;;;;13.00;12.25;;;;;22.49;36.98;101000.47;5073413;28;46652;-46
2022/07/29 06:24:25;;;;;;;;;14.75;12.50;;;;;22.51;37.58;101003.03;5063691;27;45432;-47
2022/07/29 06:26:50;;;;;;;;;18.50;14.25;;;;;22.50;36.70;101003.97;5065962;28;45382;-45
2022/07/29 06:29:15;;;;;;;;;16.75;12.75;;;;;22.48;37.56;101004.09;5077256;27;45632;-46
2022/07/29 06:31:41;;;;;;;;;21.75;15.25;;;;;22.51;37.14;101005.69;5066866;28;72224;-43
2022/07/29 06:34:07;;;;;;;;;20.50;19.00;;;;;22.49;37.19;101000.47;5063519;27;45441;-44
2022/07/29 06:36:36;;;;;;;;;16.00;14.00;;;;;22.50;37.05;101002.16;5076449;28;45363;-43
2022/07/29 06:39:04;;;;;;;;;19.00;12.50;;;;;22.53;37.05;101001.94;5069183;27;45564;-45
2022/07/29 06:41:30;;;;;;;;;16.00;13.00;;;;;22.52;36.58;101002.06;5064704;27;46636;-46
2022/07/29 06:43:56;;;;;;;;;14.25;10.50;;;;;22.51;37.13;100995.88;5073297;27;66845;-47
2022/07/29 06:46:21;;;;;;;;;13.50;10.75;;;;;22.54;37.18;101006.31;5079638;27;45361;-45
2022/07/29 06:48:47;;;;;;;;;12.75;11.25;;;;;22.57;36.42;101007.91;5064385;27;45485;-44
2022/07/29 06:51:13;;;;;;;;;18.75;11.50;;;;;22.56;37.19;101012.41;5067031;28;64544;-45
2022/07/29 06:53:39;;;;;;;;;16.75;15.00;;;;;22.59;36.99;101011.31;5076970;27;45489;-48
2022/07/29 06:56:08;;;;;;;;;20.25;12.25;;;;;22.64;36.88;101018.97;5067455;27;45289;-48
2022/07/29 06:58:34;;;;;;;;;17.00;10.75;;;;;22.68;37.05;101017.78;5064270;27;45506;-46
2022/07/29 07:01:02;;;;;;;;;18.75;12.00;;;;;22.74;37.07;101012.00;5076557;28;45470;-46
2022/07/29 07:03:28;;;;;;;;;19.75;12.50;;;;;22.78;36.66;101010.81;5068082;27;45571;-51
2022/07/29 07:05:54;;;;;;;;;14.75;10.75;;;;;22.81;36.76;101012.41;5075058;27;45450;-51
2022/07/29 07:08:21;;;;;;;;;35.50;16.25;;;;;22.86;36.41;101015.56;5078721;27;45405;-45
2022/07/29 07:10:47;;;;;;;;;13.75;9.25;;;;;22.90;36.63;101023.25;5067774;27;45386;-50
2022/07/29 07:13:13;;;;;;;;;36.00;16.25;;;;;22.92;36.71;101018.63;5061463;28;45324;-51
2022/07/29 07:15:38;;;;;;;;;24.50;13.00;;;;;22.96;36.58;101029.94;5078351;27;66603;-50
2022/07/29 07:18:05;;;;;;;;;14.50;7.00;;;;;22.96;36.43;101032.59;5065607;27;45417;-50
2022/07/29 07:20:31;;;;;;;;;9.50;8.75;;;;;22.97;35.89;101030.81;5079484;27;45318;-49
2022/07/29 07:22:57;;;;;;;;;40.75;20.00;;;;;22.97;36.27;101028.97;5079261;27;45475;-49
2022/07/29 07:25:22;;;;;;;;;16.50;10.25;;;;;23.02;36.23;101031.28;5079381;27;45467;-51
2022/07/29 07:27:48;;;;;;;;;10.25;8.00;;;;;23.06;36.43;101032.81;5077224;27;59169;-50
2022/07/29 07:30:13;;;;;;;;;49.75;22.00;;;;;23.10;36.05;101028.94;5067367;27;45302;-51
2022/07/29 07:32:38;;;;;;;;;14.75;9.50;;;;;23.15;36.19;101037.44;5076604;27;45242;-49
2022/07/29 07:35:05;;;;;;;;;14.25;9.25;;;;;23.18;36.01;101033.69;5076978;28;65002;-48
2022/07/29 07:37:31;;;;;;;;;15.25;10.75;;;;;23.22;36.00;101032.50;5078759;27;45417;-49
2022/07/29 07:39:56;;;;;;;;;14.25;10.50;;;;;23.26;36.43;101039.31;5078694;27;46855;-51
2022/07/29 07:42:21;;;;;;;;;13.75;11.00;;;;;23.33;36.30;101045.03;5076528;27;45341;-49
2022/07/29 07:44:48;;;;;;;;;16.00;11.00;;;;;23.40;36.04;101032.94;5069523;28;45827;-48
2022/07/29 07:47:14;;;;;;;;;8.75;8.75;;;;;23.47;36.27;101035.00;5078357;28;45499;-47
2022/07/29 07:49:39;;;;;;;;;12.25;10.25;;;;;23.50;36.15;101036.59;5078370;27;46678;-46
2022/07/29 07:52:04;;;;;;;;;17.00;11.75;;;;;23.55;35.94;101037.09;5072052;27;57455;-48
2022/07/29 07:54:30;;;;;;;;;9.75;9.00;;;;;23.61;35.99;101036.63;5075052;27;45481;-49
2022/07/29 07:56:56;;;;;;;;;15.75;9.25;;;;;23.64;35.79;101039.06;5069377;28;45447;-47
2022/07/29 07:59:21;;;;;;;;;10.75;9.00;;;;;23.73;35.87;101037.50;5065251;28;45437;-46
2022/07/29 08:01:47;;;;;;;;;13.75;7.75;;;;;23.80;35.48;101036.06;5066299;27;45490;-49
2022/07/29 08:04:12;;;;;;;;;11.50;8.75;;;;;23.86;35.88;101040.06;5068910;27;64274;-45
2022/07/29 08:06:38;;;;;;;;;11.25;9.75;;;;;23.91;35.78;101039.72;5066473;28;45422;-49
2022/07/29 08:09:04;;;;;;;;;9.00;9.00;;;;;23.99;35.71;101046.19;5072723;27;47046;-48
2022/07/29 08:11:30;;;;;;;;;10.75;8.00;;;;;24.07;35.60;101048.22;5072369;27;45395;-47
2022/07/29 08:13:55;;;;;;;;;9.00;7.00;;;;;24.13;35.25;101047.72;5068778;28;45479;-46
2022/07/29 08:16:21;;;;;;;;;9.25;7.50;;;;;24.21;35.12;101045.31;5078086;27;45430;-47
2022/07/29 08:18:46;;;;;;;;;8.00;7.00;;;;;24.29;35.50;101044.69;5066852;28;45488;-48
2022/07/29 08:21:13;;;;;;;;;7.25;5.75;;;;;24.35;34.69;101041.53;5075653;27;45231;-49
2022/07/29 08:23:39;;;;;;;;;7.50;5.25;;;;;24.41;34.81;101043.69;5062787;27;45527;-47
2022/07/29 08:26:12;;;;;;;;;3.75;3.75;;;;;24.48;33.96;101045.91;5074762;27;45399;-48
2022/07/29 08:28:39;;;;;;;;;7.50;6.00;;;;;24.53;34.00;101039.22;5078433;27;46643;-50
2022/07/29 08:31:05;;;;;;;;;8.25;6.25;;;;;24.60;33.59;101042.25;5056842;28;45532;-52
2022/07/29 08:33:30;;;;;;;;;5.00;4.00;;;;;24.63;32.50;101042.84;5073683;28;45335;-52
2022/07/29 08:35:56;;;;;;;;;5.50;4.25;;;;;24.68;33.51;101036.28;5073849;27;66544;-53
2022/07/29 08:38:21;;;;;;;;;6.00;5.00;;;;;24.73;33.63;101042.09;5075279;27;73416;-52
2022/07/29 08:40:47;;;;;;;;;7.25;7.25;;;;;24.77;32.95;101036.38;5079159;27;45379;-51
2022/07/29 08:43:12;;;;;;;;;7.25;5.25;;;;;24.79;32.91;101029.06;5076143;28;68332;-51
2022/07/29 08:45:49;;;;;;;;;7.50;7.50;;;;;24.88;32.83;101042.66;5076338;27;45634;-50
2022/07/29 08:48:17;;;;;;;;;4.25;4.25;;;;;24.94;32.94;101047.50;5072035;28;45597;-48
2022/07/29 08:50:44;;;;;;;;;5.00;5.00;;;;;24.99;32.51;101039.94;5073738;27;45685;-47
2022/07/29 08:53:15;;;;;;;;;7.75;6.00;;;;;25.04;32.60;101050.25;5066958;27;45513;-48
2022/07/29 08:55:42;;;;;;;;;4.50;4.50;;;;;25.07;32.72;101044.66;5067503;27;45611;-50
2022/07/29 08:58:08;;;;;;;;;5.00;5.00;;;;;25.11;32.76;101046.13;5073779;28;46462;-48
2022/07/29 09:00:36;;;;;;;;;12.50;4.50;;;;;25.15;32.19;101042.19;5075183;27;45324;-52
2022/07/29 09:03:04;;;;;;;;;6.75;3.75;;;;;25.17;31.83;101038.41;5078002;27;45478;-51
2022/07/29 09:05:29;;;;;;;;;8.50;3.25;;;;;25.21;32.07;101049.69;5074027;27;53747;-50
2022/07/29 09:07:55;;;;;;;;;6.75;4.50;;;;;25.23;31.67;101047.75;5073499;27;46062;-51
2022/07/29 09:10:20;;;;;;;;;7.00;3.25;;;;;25.25;31.79;101039.63;5075888;27;62207;-52
2022/07/29 09:12:46;;;;;;;;;4.00;4.00;;;;;25.29;31.88;101041.91;5069084;27;45520;-50
2022/07/29 09:15:11;;;;;;;;;8.75;5.00;;;;;25.34;32.09;101044.22;5061670;28;45432;-48
2022/07/29 09:17:45;;;;;;;;;6.25;6.00;;;;;25.43;32.02;101046.09;5069339;28;74556;-46
2022/07/29 09:20:16;;;;;;;;;6.00;3.50;;;;;25.50;32.37;101046.44;5076633;27;45747;-46
2022/07/29 09:22:42;;;;;;;;;4.50;4.50;;;;;25.56;31.80;101049.44;5073277;27;45260;-47
2022/07/29 09:25:07;;;;;;;;;8.75;4.00;;;;;25.61;32.14;101043.69;5066484;27;62256;-47
2022/07/29 09:27:33;;;;;;;;;5.00;3.50;;;;;25.68;32.06;101041.31;5075007;28;46435;-51
2022/07/29 09:30:07;;;;;;;;;7.00;4.75;;;;;25.73;31.97;101034.59;5072811;27;45478;-47
2022/07/29 09:32:33;;;;;;;;;4.00;3.00;;;;;25.84;30.99;101040.84;5080623;27;45305;-47
2022/07/29 09:35:22;;;;;;;;;7.00;4.00;;;;;25.98;31.57;101034.31;5075309;28;45422;-49
2022/07/29 09:37:48;;;;;;;;;6.00;5.00;;;;;26.11;31.33;101037.59;5076894;28;47371;-48
2022/07/29 09:40:19;;;;;;;;;7.00;4.00;;;;;26.25;31.63;101042.59;5080527;27;45340;-53
2022/07/29 09:42:45;;;;;;;;;4.50;4.50;;;;;26.42;31.62;101040.25;5076994;27;45455;-50
2022/07/29 09:45:11;;;;;;;;;4.25;3.00;;;;;26.55;30.87;101040.84;5073347;28;45307;-52
2022/07/29 09:47:48;;;;;;;;;4.00;3.50;;;;;26.70;31.08;101036.81;5078984;27;46460;-51
2022/07/29 09:50:14;;;;;;;;;3.75;3.00;;;;;26.87;31.21;101042.47;5093479;27;45640;-52
2022/07/29 09:52:50;;;;;;;;;8.00;3.50;;;;;27.09;31.06;101036.84;5080799;28;45303;-50
2022/07/29 09:55:17;;;;;;;;;14.75;7.25;;;;;27.76;29.04;101038.72;5079929;27;45487;-52
2022/07/29 09:57:43;;;;;;;;;8.00;5.00;;;;;28.82;30.05;101035.69;5078461;27;45668;-52
2022/07/29 10:00:10;;;;;;;;;8.75;6.00;;;;;29.97;28.49;101039.31;5077742;27;45453;-49
2022/07/29 10:02:37;;;;;;;;;3.00;3.00;;;;;31.13;27.72;101039.50;5070298;27;45280;-48
2022/07/29 10:05:06;;;;;;;;;4.00;2.25;;;;;32.24;26.08;101031.69;5080189;27;45319;-51
2022/07/29 10:07:57;;;;;;;;;4.25;4.00;;;;;33.35;25.38;101038.56;5069419;27;46024;-51
2022/07/29 10:10:30;;;;;;;;;4.75;3.75;;;;;34.26;24.00;101040.34;5072239;27;45503;-50
2022/07/29 10:12:58;;;;;;;;;5.75;4.75;;;;;35.00;22.67;101034.66;5079114;27;45397;-53
2022/07/29 10:15:25;;;;;;;;;1.00;0.00;;;;;35.69;21.13;101033.13;5079320;28;45321;-53
2022/07/29 10:17:52;;;;;;;;;5.50;3.50;;;;;36.41;21.92;101031.84;5075143;27;46149;-53
2022/07/29 10:20:18;;;;;;;;;5.75;4.00;;;;;37.08;18.08;101029.25;5070420;27;45240;-55
2022/07/29 10:22:46;;;;;;;;;4.00;4.00;;;;;37.68;18.09;101025.66;5078909;27;45313;-54
2022/07/29 10:25:12;;;;;;;;;6.75;5.25;;;;;38.14;18.92;101033.75;5071165;27;45477;-52
2022/07/29 10:27:38;;;;;;;;;3.25;3.00;;;;;38.55;19.35;101035.19;5078429;27;46113;-52
2022/07/29 10:30:04;;;;;;;;;2.50;2.50;;;;;38.95;19.31;101036.84;5071304;27;45974;-53
2022/07/29 10:32:50;;;;;;;;;6.75;3.25;;;;;39.39;18.59;101036.91;5071478;27;45679;-52
2022/07/29 10:35:21;;;;;;;;;2.75;2.25;;;;;39.85;17.88;101028.22;5072302;28;45367;-52
2022/07/29 10:37:59;;;;;;;;;6.00;3.00;;;;;40.31;18.35;101036.94;5075737;27;45444;-48
2022/07/29 10:43:45;;;;;;;;;3.00;3.00;;;;;41.33;16.78;101030.56;5073306;28;45609;-50
2022/07/29 10:46:11;;;;;;;;;8.00;4.25;;;;;41.47;14.66;101036.66;5070910;28;45400;-53
2022/07/29 10:49:12;;;;;;;;;4.00;3.75;;;;;41.74;14.83;101038.91;5073516;27;46154;-51
2022/07/29 10:51:57;;;;;;;;;2.75;2.75;;;;;41.99;16.27;101043.28;5066377;28;45454;-51
2022/07/29 10:54:51;;;;;;;;;5.00;4.00;;;;;42.16;13.82;101046.94;5069834;27;45254;-53
2022/07/29 10:57:27;;;;;;;;;3.50;2.00;;;;;42.29;13.98;101038.41;5063975;28;45342;-55
2022/07/29 11:00:01;;;;;;;;;3.00;2.00;;;;;42.44;14.43;101032.34;5074445;27;45380;-53
2022/07/29 11:02:32;;;;;;;;;3.25;3.25;;;;;42.65;14.70;101035.50;5065300;27;45753;-54
2022/07/29 11:04:58;;;;;;;;;5.00;4.00;;;;;42.90;13.77;101040.59;5076052;27;45478;-56
2022/07/29 11:07:24;;;;;;;;;0.50;0.50;;;;;43.13;14.59;101038.78;5069337;27;45414;-54
2022/07/29 11:10:11;;;;;;;;;5.00;4.00;;;;;43.33;13.83;101030.88;5068153;28;46675;-55
2022/07/29 11:12:36;;;;;;;;;2.00;2.00;;;;;43.48;13.54;101037.69;5062359;28;45211;-53
2022/07/29 11:15:04;;;;;;;;;4.25;3.00;;;;;43.35;13.72;101033.34;5079050;27;45274;-56
2022/07/29 11:17:53;;;;;;;;;2.00;2.00;;;;;42.71;14.81;101047.41;5078628;27;45433;-56
2022/07/29 11:20:47;;;;;;;;;3.00;2.50;;;;;42.18;13.96;101025.53;5066228;28;45885;-56
2022/07/29 11:23:19;;;;;;;;;3.75;3.75;;;;;42.01;14.25;101035.59;5063320;28;45762;-55
2022/07/29 11:25:44;;;;;;;;;2.00;2.00;;;;;42.17;14.00;101028.53;5067655;27;45929;-56
2022/07/29 11:28:16;;;;;;;;;3.00;3.00;;;;;42.37;15.24;101026.16;5068449;27;45392;-54
2022/07/29 11:30:53;;;;;;;;;2.00;1.75;;;;;42.63;14.09;101040.41;5069886;27;46386;-56
2022/07/29 11:33:28;;;;;;;;;2.75;2.50;;;;;42.93;14.81;101031.88;5078803;28;45231;-57